Time;durP1;ratioP1;P1;durP2;ratioP2;P2;SDS_P1;SDS_P2;PMS_P1;PMS_P2;Temp;Humidity;BMP_temperature;BMP_pressure;BME280_temperature;BME280_humidity;BME280_pressure;Samples;Min_cycle;Max_cycle;Signal;HPM_P1;HPM_P2
2021/10/23 00:00:07;;;;;;;4.90;2.35;;;22.10;52.30;;;;;;4980148;28;20049;-54
2021/10/23 00:02:32;;;;;;;4.10;2.35;;;22.10;52.40;;;;;;4983283;28;20046;-53
2021/10/23 00:04:58;;;;;;;5.03;2.20;;;22.00;52.30;;;;;;4983453;28;20668;-60
2021/10/23 00:07:23;;;;;;;4.00;2.05;;;22.00;52.30;;;;;;4983532;28;20202;-55
2021/10/23 00:09:49;;;;;;;4.28;2.28;;;22.00;52.30;;;;;;4982725;28;20045;-59
2021/10/23 00:12:16;;;;;;;3.47;1.90;;;22.00;52.80;;;;;;4987070;28;20077;-53
2021/10/23 00:14:41;;;;;;;4.50;2.15;;;22.00;52.30;;;;;;4981147;28;20050;-52
2021/10/23 00:17:07;;;;;;;4.15;2.03;;;22.00;52.30;;;;;;4981889;28;20058;-58
2021/10/23 00:19:32;;;;;;;4.53;2.10;;;22.00;52.30;;;;;;4976374;28;20042;-59
2021/10/23 00:21:58;;;;;;;5.05;2.25;;;22.00;52.30;;;;;;4983442;28;20029;-60
2021/10/23 00:24:24;;;;;;;4.40;2.05;;;22.00;52.40;;;;;;4989491;28;20126;-57
2021/10/23 00:26:49;;;;;;;4.78;2.20;;;21.90;52.30;;;;;;4982231;28;20476;-58
2021/10/23 00:29:15;;;;;;;4.63;1.98;;;21.90;52.30;;;;;;4979424;28;20065;-55
2021/10/23 00:31:41;;;;;;;2.90;1.65;;;22.00;52.30;;;;;;4992076;28;20126;-57
2021/10/23 00:34:06;;;;;;;3.85;2.08;;;21.90;52.30;;;;;;4987140;28;20027;-50
2021/10/23 00:36:32;;;;;;;3.42;2.00;;;21.90;52.30;;;;;;4978653;28;20078;-59
2021/10/23 00:38:58;;;;;;;3.85;2.00;;;21.90;52.30;;;;;;4980475;28;20038;-61
2021/10/23 00:41:24;;;;;;;4.18;1.98;;;21.90;52.30;;;;;;4978060;28;20459;-60
2021/10/23 00:43:49;;;;;;;3.70;1.88;;;21.90;52.30;;;;;;4982364;28;20072;-60
2021/10/23 00:46:16;;;;;;;3.83;2.10;;;21.90;52.30;;;;;;4983316;28;20076;-58
2021/10/23 00:48:42;;;;;;;4.60;2.00;;;21.90;52.30;;;;;;4985727;28;20124;-52
2021/10/23 00:51:10;;;;;;;4.32;2.25;;;21.90;52.80;;;;;;4984139;28;20065;-54
2021/10/23 00:53:36;;;;;;;3.35;2.00;;;21.90;52.30;;;;;;4989044;28;20026;-58
2021/10/23 00:56:02;;;;;;;3.65;1.90;;;21.90;52.30;;;;;;4983732;28;20030;-55
2021/10/23 00:58:28;;;;;;;3.50;1.80;;;21.80;52.20;;;;;;4988287;28;20022;-53
2021/10/23 01:00:54;;;;;;;4.68;2.00;;;21.80;52.30;;;;;;4978944;28;20049;-61
2021/10/23 01:03:20;;;;;;;4.20;2.10;;;21.90;52.30;;;;;;4988234;28;20852;-54
2021/10/23 01:05:45;;;;;;;3.75;1.98;;;21.80;52.30;;;;;;4984183;28;20034;-57
2021/10/23 01:08:12;;;;;;;3.13;1.80;;;21.80;52.30;;;;;;4978540;28;20073;-56
2021/10/23 01:10:38;;;;;;;4.25;2.15;;;21.80;52.30;;;;;;4985024;28;20428;-60
2021/10/23 01:13:04;;;;;;;3.72;1.80;;;21.80;52.30;;;;;;4987940;28;20490;-59
2021/10/23 01:15:33;;;;;;;3.72;1.98;;;21.80;52.30;;;;;;4975747;28;20027;-59
2021/10/23 01:18:01;;;;;;;3.47;2.03;;;21.80;52.30;;;;;;4982294;28;20057;-60
2021/10/23 01:20:27;;;;;;;3.53;2.08;;;21.80;52.30;;;;;;4982756;28;20298;-53
2021/10/23 01:22:54;;;;;;;4.32;2.22;;;21.80;52.30;;;;;;4985368;28;20103;-50
2021/10/23 01:25:22;;;;;;;3.38;1.70;;;21.80;52.30;;;;;;4999060;28;20025;-61
2021/10/23 01:27:51;;;;;;;3.50;1.97;;;21.80;52.30;;;;;;4993006;28;20443;-57
2021/10/23 01:30:17;;;;;;;4.60;1.80;;;21.70;52.20;;;;;;4986223;28;20049;-52
2021/10/23 01:32:43;;;;;;;3.60;1.75;;;21.70;52.20;;;;;;4986960;28;20053;-60
2021/10/23 01:35:09;;;;;;;4.60;2.00;;;21.70;52.20;;;;;;4986924;28;20038;-54
2021/10/23 01:37:37;;;;;;;4.28;1.85;;;21.70;52.20;;;;;;4987541;28;20089;-54
2021/10/23 01:40:06;;;;;;;4.07;1.90;;;21.70;52.30;;;;;;4983249;28;20451;-60
2021/10/23 01:42:32;;;;;;;3.33;1.67;;;21.70;52.30;;;;;;4985176;28;20037;-56
2021/10/23 01:44:57;;;;;;;3.63;1.80;;;21.70;52.20;;;;;;4987169;28;20281;-53
2021/10/23 01:47:23;;;;;;;3.08;1.70;;;21.70;52.30;;;;;;4987859;28;20022;-58
2021/10/23 01:49:49;;;;;;;3.33;1.65;;;21.70;52.30;;;;;;4996506;28;20100;-51
2021/10/23 01:52:15;;;;;;;3.38;1.70;;;21.70;52.20;;;;;;4981504;28;20470;-57
2021/10/23 01:54:41;;;;;;;2.95;1.85;;;21.70;52.30;;;;;;4981501;28;20022;-57
2021/10/23 01:57:06;;;;;;;3.28;1.63;;;21.70;52.30;;;;;;4989972;28;20556;-54
2021/10/23 01:59:32;;;;;;;3.17;1.70;;;21.70;52.30;;;;;;4974974;28;20035;-56
2021/10/23 02:01:57;;;;;;;3.47;1.80;;;21.70;52.30;;;;;;4992127;28;20396;-60
2021/10/23 02:04:23;;;;;;;3.58;1.65;;;21.70;52.30;;;;;;4989741;28;20062;-57
2021/10/23 02:06:49;;;;;;;3.58;1.75;;;21.60;52.20;;;;;;4987416;28;20084;-51
2021/10/23 02:09:14;;;;;;;3.75;1.60;;;21.60;52.30;;;;;;4987883;28;20092;-59
2021/10/23 02:11:40;;;;;;;3.10;1.58;;;21.60;52.30;;;;;;4987333;28;20026;-54
2021/10/23 02:14:05;;;;;;;3.55;1.95;;;21.60;52.30;;;;;;4986641;28;20399;-55
2021/10/23 02:16:31;;;;;;;3.38;1.63;;;21.60;52.30;;;;;;4985574;28;20034;-55
2021/10/23 02:18:57;;;;;;;3.10;1.60;;;21.60;52.30;;;;;;4988330;28;20049;-59
2021/10/23 02:21:22;;;;;;;3.55;1.50;;;21.60;52.30;;;;;;4984040;28;20030;-59
2021/10/23 02:23:48;;;;;;;3.25;1.75;;;21.60;52.30;;;;;;4982631;28;20034;-54
2021/10/23 02:26:14;;;;;;;3.65;1.70;;;21.60;52.30;;;;;;4989206;28;20571;-55
2021/10/23 02:28:40;;;;;;;3.40;1.67;;;21.60;52.30;;;;;;4982165;28;20026;-48
2021/10/23 02:31:05;;;;;;;3.08;1.50;;;21.60;52.30;;;;;;4989522;28;20779;-53
2021/10/23 02:33:31;;;;;;;3.70;1.80;;;21.60;52.30;;;;;;4980807;28;20023;-51
2021/10/23 02:35:57;;;;;;;2.90;1.50;;;21.60;52.30;;;;;;4983460;28;20124;-61
2021/10/23 02:38:22;;;;;;;3.13;1.65;;;21.60;52.30;;;;;;4986728;28;20037;-60
2021/10/23 02:40:48;;;;;;;3.08;1.65;;;21.60;52.30;;;;;;4983242;28;20117;-60
2021/10/23 02:43:14;;;;;;;2.58;1.42;;;21.50;52.30;;;;;;4985598;28;20092;-58
2021/10/23 02:45:39;;;;;;;2.60;1.52;;;21.50;52.30;;;;;;4985229;28;20160;-60
2021/10/23 02:48:05;;;;;;;2.63;1.50;;;21.50;52.30;;;;;;4988310;28;20422;-55
2021/10/23 02:50:31;;;;;;;2.13;1.40;;;21.50;52.30;;;;;;4982297;28;20030;-57
2021/10/23 02:52:56;;;;;;;3.25;1.80;;;21.50;52.30;;;;;;4978723;28;20092;-57
2021/10/23 02:55:22;;;;;;;2.85;1.50;;;21.50;52.30;;;;;;4978640;28;20394;-50
2021/10/23 02:57:48;;;;;;;3.63;1.50;;;21.50;52.30;;;;;;4985297;28;20085;-59
2021/10/23 03:00:14;;;;;;;2.53;1.45;;;21.50;52.30;;;;;;4986572;28;20030;-59
2021/10/23 03:02:40;;;;;;;3.78;1.85;;;21.50;52.80;;;;;;4987754;28;20085;-51
2021/10/23 03:05:06;;;;;;;3.00;1.50;;;21.50;52.30;;;;;;4982083;28;20037;-60
2021/10/23 03:07:33;;;;;;;3.08;1.48;;;21.50;52.30;;;;;;4984527;28;20022;-55
2021/10/23 03:09:58;;;;;;;3.08;1.50;;;21.50;52.40;;;;;;4986385;28;20113;-50
2021/10/23 03:12:26;;;;;;;2.70;1.50;;;21.50;52.40;;;;;;4987257;28;20125;-61
2021/10/23 03:14:52;;;;;;;2.22;1.40;;;21.50;52.40;;;;;;4985970;28;20180;-47
2021/10/23 03:17:17;;;;;;;2.28;1.30;;;21.50;52.40;;;;;;4973045;28;20113;-50
2021/10/23 03:19:43;;;;;;;2.60;1.30;;;21.50;52.40;;;;;;4986142;28;20034;-60
2021/10/23 03:22:09;;;;;;;2.80;1.60;;;21.40;52.40;;;;;;4974291;28;20652;-60
2021/10/23 03:24:34;;;;;;;2.53;1.40;;;21.40;52.40;;;;;;4983704;28;20064;-60
2021/10/23 03:27:00;;;;;;;2.90;1.38;;;21.40;52.30;;;;;;4982680;28;20026;-53
2021/10/23 03:29:25;;;;;;;2.60;1.30;;;21.40;52.40;;;;;;4983102;28;20477;-60
2021/10/23 03:31:51;;;;;;;2.88;1.50;;;21.40;52.40;;;;;;4978508;28;20076;-57
2021/10/23 03:34:17;;;;;;;2.25;1.33;;;21.40;52.40;;;;;;4987483;28;20663;-56
2021/10/23 03:36:42;;;;;;;2.83;1.30;;;21.40;52.40;;;;;;4982310;28;20022;-52
2021/10/23 03:39:08;;;;;;;2.20;1.30;;;21.40;52.40;;;;;;4983947;28;20086;-60
2021/10/23 03:41:35;;;;;;;2.28;1.38;;;21.40;52.40;;;;;;4976586;28;20038;-52
2021/10/23 03:44:00;;;;;;;2.50;1.48;;;21.40;52.40;;;;;;4994107;28;20023;-59
2021/10/23 03:46:26;;;;;;;3.05;1.50;;;21.40;52.40;;;;;;4980634;28;20033;-51
2021/10/23 03:48:52;;;;;;;2.35;1.20;;;21.40;52.40;;;;;;4983934;28;20076;-52
2021/10/23 03:51:17;;;;;;;2.90;1.50;;;21.40;52.50;;;;;;4983606;28;20470;-53
2021/10/23 03:53:43;;;;;;;2.65;1.38;;;21.40;52.50;;;;;;4983240;28;20033;-57
2021/10/23 03:56:08;;;;;;;2.45;1.35;;;21.40;52.50;;;;;;4978925;28;20625;-55
2021/10/23 03:58:34;;;;;;;3.70;1.55;;;21.40;52.50;;;;;;4975960;28;20027;-60
2021/10/23 04:01:00;;;;;;;2.33;1.20;;;21.30;53.00;;;;;;4978559;28;20042;-58
2021/10/23 04:03:25;;;;;;;2.30;1.25;;;21.30;52.50;;;;;;4979410;28;20026;-51
2021/10/23 04:05:51;;;;;;;2.65;1.50;;;21.40;52.50;;;;;;4981258;28;20959;-58
2021/10/23 04:08:17;;;;;;;2.25;1.23;;;21.30;52.50;;;;;;4978760;28;20908;-56
2021/10/23 04:10:42;;;;;;;2.50;1.40;;;21.30;52.50;;;;;;4988968;28;20045;-60
2021/10/23 04:13:08;;;;;;;2.08;1.27;;;21.30;52.50;;;;;;4986570;28;20028;-52
2021/10/23 04:15:34;;;;;;;2.53;1.30;;;21.30;52.50;;;;;;4980510;28;20014;-57
2021/10/23 04:18:00;;;;;;;2.58;1.20;;;21.30;52.50;;;;;;4984273;28;20455;-60
2021/10/23 04:20:26;;;;;;;1.83;1.23;;;21.30;52.50;;;;;;4988277;28;20034;-59
2021/10/23 04:22:51;;;;;;;2.63;1.30;;;21.30;52.50;;;;;;4979830;28;20038;-52
2021/10/23 04:25:18;;;;;;;2.03;1.20;;;21.30;52.50;;;;;;4974343;28;20478;-61
2021/10/23 04:27:43;;;;;;;2.00;1.10;;;21.30;52.50;;;;;;4981797;28;20037;-61
2021/10/23 04:30:11;;;;;;;2.05;1.20;;;21.30;52.50;;;;;;4987236;28;20050;-56
2021/10/23 04:32:37;;;;;;;2.78;1.35;;;21.30;52.50;;;;;;4982121;28;20043;-57
2021/10/23 04:35:03;;;;;;;3.00;1.40;;;21.30;52.50;;;;;;4982468;28;20481;-55
2021/10/23 04:37:30;;;;;;;2.00;1.20;;;21.30;52.50;;;;;;4980208;28;20056;-61
2021/10/23 04:39:56;;;;;;;2.15;1.15;;;21.30;52.50;;;;;;4984551;28;20040;-60
2021/10/23 04:42:21;;;;;;;2.45;1.20;;;21.30;53.10;;;;;;4991236;28;20409;-59
2021/10/23 04:44:47;;;;;;;2.53;1.30;;;21.30;52.50;;;;;;4990273;28;20018;-54
2021/10/23 04:47:12;;;;;;;2.08;1.20;;;21.30;52.50;;;;;;4980762;28;20215;-53
2021/10/23 04:49:38;;;;;;;2.10;1.30;;;21.30;52.50;;;;;;4978804;28;20033;-49
2021/10/23 04:52:04;;;;;;;2.00;1.20;;;21.30;52.60;;;;;;4982282;28;20723;-58
2021/10/23 04:54:29;;;;;;;2.25;1.20;;;21.30;52.60;;;;;;4988460;28;20030;-59
2021/10/23 04:56:55;;;;;;;2.17;1.30;;;21.20;52.50;;;;;;4988824;28;20037;-61
2021/10/23 04:59:21;;;;;;;2.53;1.30;;;21.30;52.60;;;;;;4990496;28;20405;-59
2021/10/23 05:01:46;;;;;;;2.15;1.15;;;21.20;52.50;;;;;;4988646;28;20105;-61
2021/10/23 05:04:12;;;;;;;2.22;1.23;;;21.20;52.50;;;;;;4980865;28;20109;-57
2021/10/23 05:06:37;;;;;;;2.42;1.30;;;21.20;52.50;;;;;;4989034;28;20434;-59
2021/10/23 05:09:03;;;;;;;2.40;1.30;;;21.20;52.50;;;;;;4986251;28;20069;-58
2021/10/23 05:11:29;;;;;;;2.50;1.42;;;21.20;52.50;;;;;;4990222;28;20151;-50
2021/10/23 05:13:54;;;;;;;2.28;1.35;;;21.30;52.60;;;;;;4991069;28;20049;-57
2021/10/23 05:16:20;;;;;;;3.13;1.40;;;21.20;52.50;;;;;;4987101;28;20121;-53
2021/10/23 05:18:49;;;;;;;2.00;1.20;;;21.20;52.50;;;;;;4988340;28;20041;-60
2021/10/23 05:21:19;;;;;;;2.08;1.20;;;21.20;53.10;;;;;;4983095;28;20080;-53
2021/10/23 05:23:46;;;;;;;2.05;1.23;;;21.20;53.10;;;;;;4977452;28;20383;-57
2021/10/23 05:26:13;;;;;;;2.10;1.20;;;21.20;52.50;;;;;;4989635;28;20689;-59
2021/10/23 05:28:39;;;;;;;3.00;1.58;;;21.20;52.50;;;;;;4989737;28;20161;-51
2021/10/23 05:31:05;;;;;;;2.40;1.30;;;21.20;53.10;;;;;;4986594;28;20138;-57
2021/10/23 05:33:31;;;;;;;2.38;1.40;;;21.20;52.60;;;;;;4988958;28;20292;-61
2021/10/23 05:35:57;;;;;;;2.60;1.58;;;21.20;52.50;;;;;;4986606;28;20137;-59
2021/10/23 05:38:22;;;;;;;2.80;1.40;;;21.20;52.60;;;;;;4982111;28;20105;-55
2021/10/23 05:40:48;;;;;;;2.78;1.60;;;21.20;52.50;;;;;;4983995;28;20125;-61
2021/10/23 05:43:14;;;;;;;2.00;1.15;;;21.20;52.60;;;;;;4978649;28;20204;-51
2021/10/23 05:45:39;;;;;;;2.70;1.48;;;21.20;52.60;;;;;;4986674;28;20077;-49
2021/10/23 05:48:05;;;;;;;2.67;1.60;;;21.10;52.50;;;;;;4978315;28;20027;-52
2021/10/23 05:50:31;;;;;;;1.77;1.23;;;21.20;52.60;;;;;;4982433;28;20056;-61
2021/10/23 05:52:56;;;;;;;1.98;1.30;;;21.20;52.60;;;;;;4987757;28;20117;-49
2021/10/23 05:55:22;;;;;;;2.58;1.40;;;21.10;52.50;;;;;;4988945;28;20069;-57
2021/10/23 05:57:48;;;;;;;2.08;1.10;;;21.10;52.50;;;;;;4988902;28;20042;-59
2021/10/23 06:00:15;;;;;;;2.55;1.50;;;21.10;53.00;;;;;;4982251;28;20045;-50
2021/10/23 06:02:41;;;;;;;2.20;1.40;;;21.10;52.50;;;;;;4985628;28;20050;-56
2021/10/23 06:05:08;;;;;;;2.50;1.40;;;21.10;52.50;;;;;;4984202;28;20041;-59
2021/10/23 06:07:43;;;;;;;2.78;1.40;;;21.10;52.50;;;;;;4980381;28;20394;-53
2021/10/23 06:10:12;;;;;;;2.42;1.40;;;21.10;52.50;;;;;;4987538;28;20367;-60
2021/10/23 06:12:38;;;;;;;2.27;1.37;;;21.10;52.50;;;;;;4986738;28;20046;-61
2021/10/23 06:15:04;;;;;;;2.03;1.27;;;21.10;52.60;;;;;;4985727;28;20971;-51
2021/10/23 06:17:31;;;;;;;2.17;1.40;;;21.10;52.50;;;;;;4983177;28;20034;-61
2021/10/23 06:19:57;;;;;;;2.08;1.30;;;21.10;52.50;;;;;;4985593;28;20108;-58
2021/10/23 06:22:22;;;;;;;2.38;1.40;;;21.10;52.50;;;;;;4981756;28;20034;-60
2021/10/23 06:24:48;;;;;;;1.83;1.23;;;21.10;52.50;;;;;;4985814;28;20056;-57
2021/10/23 06:27:14;;;;;;;2.10;1.30;;;21.10;52.50;;;;;;4988630;28;20458;-57
2021/10/23 06:29:40;;;;;;;1.85;1.20;;;21.10;52.40;;;;;;4979151;28;20139;-57
2021/10/23 06:32:06;;;;;;;2.03;1.30;;;21.10;52.40;;;;;;4970839;28;20191;-59
2021/10/23 06:34:31;;;;;;;2.00;1.20;;;21.10;52.40;;;;;;4976875;28;20177;-59
2021/10/23 06:36:57;;;;;;;2.45;1.27;;;21.10;52.40;;;;;;4979806;28;20034;-60
2021/10/23 06:39:23;;;;;;;2.45;1.20;;;21.10;52.40;;;;;;4981135;28;20069;-59
2021/10/23 06:41:49;;;;;;;2.35;1.38;;;21.10;52.40;;;;;;4977252;28;20034;-59
2021/10/23 06:44:15;;;;;;;2.00;1.10;;;21.00;52.40;;;;;;4978775;28;20375;-57
2021/10/23 06:46:41;;;;;;;1.92;1.20;;;21.10;52.50;;;;;;4979157;28;20030;-59
2021/10/23 06:49:08;;;;;;;2.25;1.25;;;21.00;52.40;;;;;;4972974;28;20096;-58
2021/10/23 06:51:34;;;;;;;1.80;1.10;;;21.00;52.40;;;;;;4970987;28;20419;-58
2021/10/23 06:54:00;;;;;;;2.50;1.38;;;21.10;52.50;;;;;;4976278;28;20062;-61
2021/10/23 06:56:27;;;;;;;1.88;1.27;;;21.00;52.50;;;;;;4978811;28;20030;-54
2021/10/23 06:58:54;;;;;;;3.78;1.40;;;21.10;52.50;;;;;;4976372;28;20089;-57
2021/10/23 07:01:21;;;;;;;2.50;1.40;;;21.00;52.40;;;;;;4973021;28;20046;-59
2021/10/23 07:03:47;;;;;;;2.45;1.40;;;21.00;52.50;;;;;;4984233;28;20561;-54
2021/10/23 07:06:12;;;;;;;3.22;1.30;;;21.00;52.50;;;;;;4975226;28;20108;-60
2021/10/23 07:08:38;;;;;;;2.65;1.40;;;21.00;52.50;;;;;;4980657;28;20026;-58
2021/10/23 07:11:04;;;;;;;2.50;1.10;;;21.00;52.50;;;;;;4982397;28;20063;-56
2021/10/23 07:13:29;;;;;;;2.50;1.48;;;21.00;52.50;;;;;;4977352;28;20379;-59
2021/10/23 07:15:55;;;;;;;2.20;1.30;;;21.00;52.50;;;;;;4979876;28;20034;-59
2021/10/23 07:18:21;;;;;;;1.70;1.15;;;21.00;52.50;;;;;;4980015;28;20576;-58
2021/10/23 07:20:46;;;;;;;2.08;1.15;;;21.00;52.50;;;;;;4974473;28;20525;-59
2021/10/23 07:23:12;;;;;;;2.13;1.17;;;21.00;52.50;;;;;;4980050;28;20038;-59
2021/10/23 07:25:38;;;;;;;1.90;1.17;;;21.00;52.60;;;;;;4976587;28;20030;-55
2021/10/23 07:28:04;;;;;;;2.63;1.13;;;21.00;52.50;;;;;;4986242;28;20415;-59
2021/10/23 07:30:30;;;;;;;1.73;1.20;;;21.00;52.60;;;;;;4979240;28;20133;-60
2021/10/23 07:32:56;;;;;;;1.70;1.00;;;21.00;52.60;;;;;;4978197;28;20030;-60
2021/10/23 07:35:21;;;;;;;2.78;1.10;;;21.00;52.60;;;;;;4981998;28;20135;-60
2021/10/23 07:37:47;;;;;;;2.03;1.20;;;21.00;52.60;;;;;;4973944;28;20021;-55
2021/10/23 07:40:14;;;;;;;2.03;1.30;;;21.00;52.60;;;;;;4978472;28;20141;-57
2021/10/23 07:42:41;;;;;;;2.80;1.23;;;21.00;52.60;;;;;;4979943;28;20084;-56
2021/10/23 07:45:08;;;;;;;1.80;1.02;;;21.00;52.60;;;;;;4980148;28;20026;-58
2021/10/23 07:47:36;;;;;;;2.00;1.10;;;21.00;52.60;;;;;;4977836;28;20023;-56
2021/10/23 07:50:01;;;;;;;1.55;0.95;;;21.00;52.60;;;;;;4980959;28;20394;-59
2021/10/23 07:52:27;;;;;;;2.17;1.20;;;21.00;52.60;;;;;;4972213;28;20034;-55
2021/10/23 07:54:52;;;;;;;1.60;1.10;;;21.00;52.60;;;;;;4981479;28;20038;-58
2021/10/23 07:57:18;;;;;;;2.83;1.20;;;21.00;52.60;;;;;;4980943;28;20059;-60
2021/10/23 07:59:44;;;;;;;2.00;1.20;;;21.00;52.60;;;;;;4991118;28;20112;-60
2021/10/23 08:02:10;;;;;;;2.13;1.20;;;21.00;52.60;;;;;;4973525;28;20177;-57
2021/10/23 08:04:36;;;;;;;2.08;1.10;;;21.00;52.70;;;;;;4981775;28;20031;-60
2021/10/23 08:07:04;;;;;;;2.03;1.20;;;21.00;52.60;;;;;;4978527;28;20089;-58
2021/10/23 08:09:31;;;;;;;2.15;1.20;;;21.00;52.60;;;;;;4973147;28;20416;-55
2021/10/23 08:11:58;;;;;;;2.22;1.10;;;21.00;52.60;;;;;;4986948;28;20579;-60
2021/10/23 08:14:24;;;;;;;2.33;1.10;;;21.00;52.70;;;;;;4982963;28;20030;-59
2021/10/23 08:16:49;;;;;;;2.10;1.10;;;21.00;52.60;;;;;;4987551;28;20045;-58
2021/10/23 08:19:15;;;;;;;3.13;1.48;;;21.00;52.70;;;;;;4984152;28;20096;-62
2021/10/23 08:21:41;;;;;;;2.90;1.25;;;21.00;52.70;;;;;;4980824;28;20058;-57
2021/10/23 08:24:14;;;;;;;2.10;1.30;;;21.00;52.70;;;;;;4982722;28;20031;-57
2021/10/23 08:26:40;;;;;;;2.05;1.30;;;21.00;52.70;;;;;;4983214;28;20034;-54
2021/10/23 08:29:06;;;;;;;2.45;1.38;;;21.00;52.70;;;;;;4977913;28;20523;-60
2021/10/23 08:31:32;;;;;;;2.30;1.20;;;21.00;52.70;;;;;;4980763;28;20129;-59
2021/10/23 08:33:59;;;;;;;3.00;1.27;;;21.00;52.80;;;;;;4984980;28;20520;-61
2021/10/23 08:36:25;;;;;;;2.35;1.10;;;21.00;52.80;;;;;;4979757;28;20025;-49
2021/10/23 08:38:51;;;;;;;2.63;1.30;;;21.00;52.70;;;;;;4979000;28;20410;-59
2021/10/23 08:41:18;;;;;;;4.75;1.50;;;21.00;52.80;;;;;;4983193;28;20418;-56
2021/10/23 08:43:44;;;;;;;2.70;1.20;;;21.00;52.80;;;;;;4980359;28;20097;-52
2021/10/23 08:46:14;;;;;;;2.28;1.30;;;21.00;52.80;;;;;;4977941;28;20237;-52
2021/10/23 08:48:44;;;;;;;3.50;1.30;;;21.00;52.80;;;;;;4979808;28;20795;-54
2021/10/23 08:51:09;;;;;;;2.38;1.20;;;21.00;52.90;;;;;;4979599;28;20038;-61
2021/10/23 08:53:39;;;;;;;3.35;1.40;;;21.00;52.80;;;;;;4977439;28;20585;-60
2021/10/23 08:56:06;;;;;;;3.47;1.40;;;21.00;52.90;;;;;;4985914;28;20172;-62
2021/10/23 08:58:31;;;;;;;2.13;1.20;;;21.00;53.40;;;;;;4983824;28;20123;-62
2021/10/23 09:00:57;;;;;;;2.70;1.52;;;21.00;52.90;;;;;;4987933;28;20046;-57
2021/10/23 09:03:23;;;;;;;2.75;1.38;;;21.00;53.00;;;;;;4979241;28;20034;-60
2021/10/23 09:05:50;;;;;;;2.90;1.30;;;21.00;53.00;;;;;;4983304;28;20125;-62
2021/10/23 09:08:17;;;;;;;3.72;1.40;;;21.00;53.00;;;;;;4975634;28;20153;-60
2021/10/23 09:10:47;;;;;;;2.55;1.40;;;21.00;53.00;;;;;;4992743;28;20035;-59
2021/10/23 09:13:13;;;;;;;2.75;1.42;;;21.00;53.00;;;;;;4988242;28;20057;-56
2021/10/23 09:15:41;;;;;;;3.08;1.58;;;21.00;53.00;;;;;;4991637;28;20152;-61
2021/10/23 09:18:08;;;;;;;4.85;1.70;;;21.00;53.00;;;;;;4992012;28;20033;-57
2021/10/23 09:20:42;;;;;;;2.88;1.40;;;21.00;53.00;;;;;;4990548;28;20034;-57
2021/10/23 09:23:19;;;;;;;2.58;1.50;;;21.00;53.10;;;;;;4989121;28;20439;-60
2021/10/23 09:25:46;;;;;;;3.00;1.33;;;20.90;53.10;;;;;;4989664;28;20026;-58
2021/10/23 09:28:25;;;;;;;3.55;1.35;;;20.90;53.10;;;;;;4991528;28;20078;-57
2021/10/23 09:30:52;;;;;;;2.15;1.30;;;20.90;53.10;;;;;;4985558;28;20108;-60
2021/10/23 09:33:25;;;;;;;4.05;1.58;;;20.90;53.10;;;;;;4994879;28;20018;-60
2021/10/23 09:35:57;;;;;;;3.20;1.60;;;20.90;53.20;;;;;;4984474;28;20030;-56
2021/10/23 09:38:26;;;;;;;3.45;1.50;;;20.90;53.20;;;;;;4986292;28;20026;-55
2021/10/23 09:40:56;;;;;;;3.00;1.60;;;21.00;53.30;;;;;;4988391;28;20050;-60
2021/10/23 09:43:25;;;;;;;2.95;1.70;;;20.90;53.30;;;;;;4986453;28;20030;-56
2021/10/23 09:45:57;;;;;;;4.70;2.33;;;20.90;53.30;;;;;;4984811;28;20067;-57
2021/10/23 09:48:34;;;;;;;3.08;1.65;;;20.90;53.40;;;;;;4987216;28;20041;-56
2021/10/23 09:51:14;;;;;;;2.70;1.40;;;20.90;53.40;;;;;;4982211;28;20031;-60
2021/10/23 09:53:41;;;;;;;3.30;1.70;;;20.90;53.50;;;;;;4985988;28;20103;-57
2021/10/23 09:56:13;;;;;;;3.40;1.55;;;20.90;53.50;;;;;;4989184;28;20050;-54
2021/10/23 09:58:50;;;;;;;2.83;1.40;;;20.90;53.60;;;;;;4985257;28;20030;-57
2021/10/23 10:01:16;;;;;;;2.70;1.52;;;20.90;53.70;;;;;;4984627;28;20051;-57
2021/10/23 10:03:43;;;;;;;3.83;1.40;;;20.90;53.80;;;;;;4994424;28;20036;-60
2021/10/23 10:06:10;;;;;;;2.88;1.60;;;20.90;53.80;;;;;;4987680;28;20068;-60
2021/10/23 10:08:37;;;;;;;3.55;1.50;;;20.90;53.80;;;;;;4990239;28;20027;-56
2021/10/23 10:11:02;;;;;;;2.78;1.35;;;20.90;53.80;;;;;;4989525;28;20026;-61
2021/10/23 10:13:28;;;;;;;3.47;1.70;;;21.00;53.90;;;;;;4988561;28;20205;-60
2021/10/23 10:15:56;;;;;;;2.30;1.38;;;21.00;54.00;;;;;;4987881;28;20030;-55
2021/10/23 10:18:23;;;;;;;2.25;1.23;;;21.00;53.90;;;;;;4989632;28;20038;-56
2021/10/23 10:20:54;;;;;;;4.63;1.50;;;21.00;53.90;;;;;;4989407;28;20038;-60
2021/10/23 10:23:34;;;;;;;3.08;1.20;;;21.00;53.90;;;;;;4990382;28;20373;-55
2021/10/23 10:26:17;;;;;;;2.80;1.13;;;21.00;54.10;;;;;;4981210;28;20033;-57
2021/10/23 10:29:09;;;;;;;3.65;1.40;;;21.00;54.00;;;;;;4986406;28;20109;-62
2021/10/23 10:38:11;;;;;;;3.05;1.30;;;21.00;54.10;;;;;;4988135;28;20038;-60
2021/10/23 10:40:16;;;;;;;2.55;1.40;;;21.00;54.10;;;;;;4987893;28;20029;-59
2021/10/23 10:43:03;;;;;;;3.55;1.35;;;21.00;54.10;;;;;;4987502;28;20406;-58
2021/10/23 10:45:40;;;;;;;2.85;1.60;;;21.00;54.10;;;;;;4989587;28;20030;-58
2021/10/23 10:48:34;;;;;;;2.92;1.20;;;21.00;54.60;;;;;;4988276;28;20022;-59
2021/10/23 10:51:06;;;;;;;3.50;1.38;;;21.00;55.30;;;;;;4991908;28;20041;-54
2021/10/23 10:53:39;;;;;;;2.60;1.15;;;21.00;55.90;;;;;;4986772;28;20129;-56
2021/10/23 10:56:06;;;;;;;2.30;1.30;;;21.10;55.90;;;;;;4978314;28;20023;-62
2021/10/23 10:58:43;;;;;;;2.70;1.40;;;21.10;55.80;;;;;;4988754;28;20049;-56
2021/10/23 11:01:22;;;;;;;2.33;1.48;;;21.10;55.80;;;;;;4994598;28;20130;-59
2021/10/23 11:04:10;;;;;;;2.33;1.17;;;21.10;55.80;;;;;;4977764;28;20137;-51
2021/10/23 11:06:39;;;;;;;2.33;1.35;;;21.10;56.00;;;;;;4985628;28;20034;-62
2021/10/23 11:09:20;;;;;;;2.67;1.40;;;21.20;55.60;;;;;;4987924;28;20041;-60
2021/10/23 11:11:47;;;;;;;2.60;1.45;;;21.20;55.20;;;;;;5000934;28;20276;-61
2021/10/23 11:14:21;;;;;;;3.55;1.27;;;21.20;54.80;;;;;;4987545;28;20023;-58
2021/10/23 11:16:56;;;;;;;3.50;1.55;;;21.30;54.70;;;;;;4990372;28;20491;-56
2021/10/23 11:19:37;;;;;;;3.65;1.90;;;21.30;54.60;;;;;;4991740;28;20030;-57
2021/10/23 11:22:18;;;;;;;2.88;1.50;;;21.30;54.40;;;;;;4981154;28;20455;-61
2021/10/23 11:25:00;;;;;;;3.30;1.42;;;21.40;54.50;;;;;;4985193;28;20080;-53
2021/10/23 11:27:43;;;;;;;3.05;1.40;;;21.40;54.40;;;;;;4984658;28;20521;-57
2021/10/23 11:30:21;;;;;;;4.40;2.05;;;21.40;54.30;;;;;;4991444;28;20065;-60
2021/10/23 11:33:21;;;;;;;3.75;1.58;;;21.40;54.10;;;;;;4979613;28;20038;-51
2021/10/23 11:35:49;;;;;;;;;;;21.50;53.90;;;;;;4982539;28;20050;-57
2021/10/23 11:38:22;;;;;;;2.75;1.60;;;21.50;53.80;;;;;;4981568;28;20030;-53
2021/10/23 11:40:53;;;;;;;4.40;1.75;;;21.60;53.80;;;;;;4987055;28;20031;-52
2021/10/23 11:43:19;;;;;;;3.58;1.63;;;21.60;53.70;;;;;;4981351;28;20046;-55
2021/10/23 11:45:46;;;;;;;3.53;1.60;;;21.60;53.70;;;;;;4985207;28;20042;-56
2021/10/23 11:48:12;;;;;;;4.40;1.83;;;21.60;53.60;;;;;;4989331;28;20047;-58
2021/10/23 11:50:43;;;;;;;3.83;1.52;;;21.70;53.60;;;;;;4980932;28;20038;-60
2021/10/23 11:53:19;;;;;;;4.45;1.52;;;21.70;53.60;;;;;;4983129;28;20137;-57
2021/10/23 11:55:52;;;;;;;3.65;1.40;;;21.70;53.50;;;;;;4979574;28;20034;-59
2021/10/23 11:58:25;;;;;;;4.25;1.50;;;21.70;53.60;;;;;;4983738;28;20256;-57
2021/10/23 12:01:08;;;;;;;4.05;1.40;;;21.70;54.00;;;;;;4984591;28;20877;-56
2021/10/23 12:03:44;;;;;;;3.70;1.50;;;21.70;53.40;;;;;;4973933;28;20093;-57
2021/10/23 12:06:28;;;;;;;2.83;1.52;;;21.80;53.40;;;;;;4967133;28;20034;-54
2021/10/23 12:08:54;;;;;;;2.67;1.30;;;21.70;53.30;;;;;;4979707;28;20093;-55
2021/10/23 12:11:24;;;;;;;3.63;1.70;;;21.80;53.30;;;;;;4986354;28;20030;-50
2021/10/23 12:14:05;;;;;;;3.22;1.70;;;21.80;53.20;;;;;;4982437;28;20093;-60
2021/10/23 12:16:48;;;;;;;3.72;2.05;;;21.80;53.20;;;;;;4974335;28;20531;-59
2021/10/23 12:19:40;;;;;;;4.07;1.65;;;21.80;53.10;;;;;;4981594;28;20118;-58
2021/10/23 12:22:05;;;;;;;2.53;1.30;;;21.90;53.10;;;;;;4977894;28;20034;-55
2021/10/23 12:24:32;;;;;;;2.83;1.40;;;21.90;53.10;;;;;;4988792;28;20088;-51
2021/10/23 12:27:04;;;;;;;3.75;1.30;;;21.90;53.00;;;;;;4979197;28;20054;-58
2021/10/23 12:29:41;;;;;;;3.60;1.45;;;21.90;53.00;;;;;;4978087;28;20062;-58
2021/10/23 12:32:10;;;;;;;3.28;1.38;;;21.90;53.00;;;;;;4977681;28;20048;-59
2021/10/23 12:34:51;;;;;;;3.22;1.45;;;21.90;52.90;;;;;;4976455;28;20042;-53
2021/10/23 12:37:34;;;;;;;3.35;1.40;;;21.90;52.80;;;;;;4976788;28;20038;-58
2021/10/23 12:40:09;;;;;;;2.83;1.40;;;21.90;52.70;;;;;;4975157;28;20035;-58
2021/10/23 12:42:57;;;;;;;3.22;1.50;;;21.90;52.60;;;;;;4976576;28;20030;-61
2021/10/23 12:45:30;;;;;;;3.50;1.40;;;21.90;52.50;;;;;;4974350;28;20031;-56
2021/10/23 12:47:58;;;;;;;4.03;1.40;;;21.90;52.50;;;;;;4978273;28;20075;-55
2021/10/23 12:50:23;;;;;;;2.42;1.42;;;21.90;52.40;;;;;;4979574;28;20406;-55
2021/10/23 12:52:50;;;;;;;3.25;1.23;;;21.90;52.30;;;;;;4981098;28;20164;-50
2021/10/23 12:55:17;;;;;;;2.88;1.27;;;21.90;52.30;;;;;;4980191;28;20367;-58
2021/10/23 12:57:42;;;;;;;2.38;1.27;;;21.90;52.20;;;;;;4979392;28;20034;-62